Time,TemperatureF,DewpointF,PressureIn,WindDirection,WindDirectionDegrees,WindSpeedMPH,WindSpeedGustMPH,Humidity,HourlyPrecipIn,Conditions,Clouds,dailyrainin,SoftwareType,DateUTC
2013-04-03 00:00:00,37.8,15.7,30.14,ESE,112,1.7,-999.0,40,-99.99,,,0.00,Acu-Link.com,2013-04-03 04:00:00,
2013-04-03 00:15:00,37.2,15.1,30.14,East,90,3.2,-999.0,40,-99.99,,,0.00,Acu-Link.com,2013-04-03 04:15:00,
2013-04-03 00:30:00,37.2,15.7,30.14,NNW,337,3.2,-999.0,41,-99.99,,,0.00,Acu-Link.com,2013-04-03 04:30:00,
2013-04-03 00:45:00,36.7,16.3,30.14,ESE,112,1.1,-999.0,43,-99.99,,,0.00,Acu-Link.com,2013-04-03 04:45:00,
2013-04-03 01:01:00,36.7,15.8,30.15,North,0,1.7,-999.0,42,-99.99,,,0.00,Acu-Link.com,2013-04-03 05:01:00,
2013-04-03 01:31:00,36.0,16.2,30.15,North,0,1.7,-999.0,44,-99.99,,,0.00,Acu-Link.com,2013-04-03 05:31:00,
2013-04-03 01:46:00,35.6,16.4,30.15,WNW,292,1.7,-999.0,45,-99.99,,,0.00,Acu-Link.com,2013-04-03 05:46:00,
2013-04-03 02:17:00,34.7,16.6,30.16,North,0,2.2,-999.0,47,-99.99,,,0.00,Acu-Link.com,2013-04-03 06:17:00,
2013-04-03 02:32:00,34.3,16.2,30.16,North,0,2.7,-999.0,47,-99.99,,,0.00,Acu-Link.com,2013-04-03 06:32:00,
2013-04-03 02:47:00,34.0,16.4,30.15,North,0,2.7,-999.0,48,-99.99,,,0.00,Acu-Link.com,2013-04-03 06:47:00,
2013-04-03 03:02:00,33.8,16.7,30.16,North,0,1.1,-999.0,49,-99.99,,,0.00,Acu-Link.com,2013-04-03 07:02:00,
2013-04-03 03:17:00,32.7,16.6,30.15,North,0,0.0,-999.0,51,-99.99,,,0.00,Acu-Link.com,2013-04-03 07:17:00,
2013-04-03 03:33:00,31.6,16.5,30.15,North,0,0.0,-999.0,53,-99.99,,,0.00,Acu-Link.com,2013-04-03 07:33:00,
2013-04-03 03:48:00,30.6,17.2,30.16,North,0,0.0,-999.0,57,-99.99,,,0.00,Acu-Link.com,2013-04-03 07:48:00,
2013-04-03 04:03:00,29.7,17.2,30.16,North,0,0.0,-999.0,59,-99.99,,,0.00,Acu-Link.com,2013-04-03 08:03:00,
2013-04-03 04:18:00,29.3,16.8,30.16,North,0,0.0,-999.0,59,-99.99,,,0.00,Acu-Link.com,2013-04-03 08:18:00,
2013-04-03 04:33:00,28.8,16.3,30.16,North,0,0.0,-999.0,59,-99.99,,,0.00,Acu-Link.com,2013-04-03 08:33:00,
2013-04-03 04:49:00,28.4,17.4,30.16,North,0,0.0,-999.0,63,-99.99,,,0.00,Acu-Link.com,2013-04-03 08:49:00,
2013-04-03 05:04:00,28.0,17.1,30.16,North,0,0.0,-999.0,63,-99.99,,,0.00,Acu-Link.com,2013-04-03 09:04:00,
2013-04-03 05:19:00,27.5,17.3,30.16,North,0,0.0,-999.0,65,-99.99,,,0.00,Acu-Link.com,2013-04-03 09:19:00,
2013-04-03 05:34:00,27.5,18.0,30.16,North,0,0.0,-999.0,67,-99.99,,,0.00,Acu-Link.com,2013-04-03 09:34:00,
2013-04-03 05:49:00,27.5,17.7,30.15,North,0,0.0,-999.0,66,-99.99,,,0.00,Acu-Link.com,2013-04-03 09:49:00,
2013-04-03 06:04:00,28.2,18.0,30.15,North,0,1.7,-999.0,65,-99.99,,,0.00,Acu-Link.com,2013-04-03 10:04:00,
2013-04-03 06:20:00,28.0,17.8,30.16,North,0,0.0,-999.0,65,-99.99,,,0.00,Acu-Link.com,2013-04-03 10:20:00,
2013-04-03 06:35:00,28.8,17.1,30.16,North,0,1.7,-999.0,61,-99.99,,,0.00,Acu-Link.com,2013-04-03 10:35:00,
2013-04-03 06:50:00,29.8,17.2,30.16,North,0,3.2,-999.0,59,-99.99,,,0.00,Acu-Link.com,2013-04-03 10:50:00,
2013-04-03 07:05:00,29.3,17.2,30.17,North,0,2.2,-999.0,60,-99.99,,,0.00,Acu-Link.com,2013-04-03 11:05:00,
2013-04-03 07:20:00,29.5,17.3,30.18,North,0,0.0,-999.0,60,-99.99,,,0.00,Acu-Link.com,2013-04-03 11:20:00,
2013-04-03 07:36:00,29.3,17.5,30.20,North,0,1.1,-999.0,61,-99.99,,,0.00,Acu-Link.com,2013-04-03 11:36:00,
2013-04-03 08:06:00,31.1,18.1,30.22,North,0,2.7,-999.0,58,-99.99,,,0.00,Acu-Link.com,2013-04-03 12:06:00,
2013-04-03 08:21:00,32.7,17.9,30.22,ESE,112,2.7,-999.0,54,-99.99,,,0.00,Acu-Link.com,2013-04-03 12:21:00,
2013-04-03 08:37:00,34.5,18.7,30.23,ESE,112,4.2,-999.0,52,-99.99,,,0.00,Acu-Link.com,2013-04-03 12:37:00,
2013-04-03 08:52:00,36.0,18.7,30.23,SSE,157,3.7,-999.0,49,-99.99,,,0.00,Acu-Link.com,2013-04-03 12:52:00,
2013-04-03 09:07:00,37.6,18.7,30.24,NE,45,4.2,-999.0,46,-99.99,,,0.00,Acu-Link.com,2013-04-03 13:07:00,
2013-04-03 09:22:00,38.5,19.0,30.24,ESE,112,3.7,-999.0,45,-99.99,,,0.00,Acu-Link.com,2013-04-03 13:22:00,
2013-04-03 09:37:00,39.4,18.8,30.24,East,90,4.7,-999.0,43,-99.99,,,0.00,Acu-Link.com,2013-04-03 13:37:00,
2013-04-03 09:53:00,41.9,19.4,30.24,SSE,157,4.2,-999.0,40,-99.99,,,0.00,Acu-Link.com,2013-04-03 13:53:00,
2013-04-03 10:08:00,40.5,16.9,30.25,NE,45,3.7,-999.0,38,-99.99,,,0.00,Acu-Link.com,2013-04-03 14:08:00,
2013-04-03 10:23:00,41.0,16.7,30.25,East,90,8.9,-999.0,37,-99.99,,,0.00,Acu-Link.com,2013-04-03 14:23:00,
2013-04-03 10:38:00,43.0,18.5,30.27,ESE,112,6.8,-999.0,37,-99.99,,,0.00,Acu-Link.com,2013-04-03 14:38:00,
2013-04-03 10:53:00,43.3,18.8,30.26,ESE,112,4.7,-999.0,37,-99.99,,,0.00,Acu-Link.com,2013-04-03 14:53:00,
2013-04-03 11:09:00,43.0,19.8,30.25,NE,45,8.3,-999.0,39,-99.99,,,0.00,Acu-Link.com,2013-04-03 15:09:00,
2013-04-03 11:39:00,45.1,19.8,30.25,SSE,157,7.8,-999.0,36,-99.99,,,0.00,Acu-Link.com,2013-04-03 15:39:00,
2013-04-03 11:54:00,45.9,18.4,30.25,East,90,6.3,-999.0,33,-99.99,,,0.00,Acu-Link.com,2013-04-03 15:54:00,
2013-04-03 12:25:00,46.8,20.6,30.24,ESE,112,4.7,-999.0,35,-99.99,,,0.00,Acu-Link.com,2013-04-03 16:25:00,
2013-04-03 12:40:00,45.5,20.1,30.23,SSE,157,5.8,-999.0,36,-99.99,,,0.00,Acu-Link.com,2013-04-03 16:40:00,
2013-04-03 12:55:00,46.2,20.7,30.22,NNE,22,10.4,-999.0,36,-99.99,,,0.00,Acu-Link.com,2013-04-03 16:55:00,
2013-04-03 13:10:00,47.8,20.1,30.23,ESE,112,3.2,-999.0,33,-99.99,,,0.00,Acu-Link.com,2013-04-03 17:10:00,
2013-04-03 13:26:00,46.6,21.1,30.22,SE,135,6.8,-999.0,36,-99.99,,,0.00,Acu-Link.com,2013-04-03 17:26:00,
2013-04-03 14:26:00,48.9,21.8,30.20,ESE,112,6.8,-999.0,34,-99.99,,,0.00,Acu-Link.com,2013-04-03 18:26:00,
2013-04-03 14:42:00,47.3,21.7,30.20,ESE,112,3.7,-999.0,36,-99.99,,,0.00,Acu-Link.com,2013-04-03 18:42:00,
2013-04-03 14:57:00,48.6,21.5,30.21,ESE,112,7.3,-999.0,34,-99.99,,,0.00,Acu-Link.com,2013-04-03 18:57:00,
2013-04-03 15:12:00,49.6,23.8,30.21,SE,135,4.7,-999.0,36,-99.99,,,0.00,Acu-Link.com,2013-04-03 19:12:00,
2013-04-03 15:27:00,49.3,22.1,30.21,ESE,112,4.7,-999.0,34,-99.99,,,0.00,Acu-Link.com,2013-04-03 19:27:00,
2013-04-03 15:42:00,50.0,22.8,30.21,NNE,22,3.7,-999.0,34,-99.99,,,0.00,Acu-Link.com,2013-04-03 19:42:00,
2013-04-03 15:58:00,48.6,21.5,30.21,ESE,112,2.7,-999.0,34,-99.99,,,0.00,Acu-Link.com,2013-04-03 19:58:00,
2013-04-03 16:13:00,49.8,22.6,30.20,NE,45,7.8,-999.0,34,-99.99,,,0.00,Acu-Link.com,2013-04-03 20:13:00,
2013-04-03 16:28:00,50.0,22.0,30.20,ESE,112,6.3,-999.0,33,-99.99,,,0.00,Acu-Link.com,2013-04-03 20:28:00,
2013-04-03 17:14:00,49.1,21.3,30.19,ESE,112,4.2,-999.0,33,-99.99,,,0.00,Acu-Link.com,2013-04-03 21:14:00,
2013-04-03 17:29:00,49.3,22.1,30.19,ESE,112,4.7,-999.0,34,-99.99,,,0.00,Acu-Link.com,2013-04-03 21:29:00,
2013-04-03 17:44:00,48.4,19.9,30.19,East,90,5.3,-999.0,32,-99.99,,,0.00,Acu-Link.com,2013-04-03 21:44:00,
2013-04-03 18:00:00,48.2,19.7,30.18,ENE,67,7.8,-999.0,32,-99.99,,,0.00,Acu-Link.com,2013-04-03 22:00:00,
2013-04-03 18:15:00,47.8,19.4,30.18,ENE,67,4.7,-999.0,32,-99.99,,,0.00,Acu-Link.com,2013-04-03 22:15:00,
2013-04-03 18:30:00,48.0,20.3,30.17,East,90,3.2,-999.0,33,-99.99,,,0.00,Acu-Link.com,2013-04-03 22:30:00,
2013-04-03 18:46:00,47.1,18.0,30.17,ENE,67,4.7,-999.0,31,-99.99,,,0.00,Acu-Link.com,2013-04-03 22:46:00,
2013-04-03 19:31:00,45.5,18.1,30.16,NE,45,4.2,-999.0,33,-99.99,,,0.00,Acu-Link.com,2013-04-03 23:31:00,
2013-04-03 19:46:00,45.0,18.3,30.15,ENE,67,4.2,-999.0,34,-99.99,,,0.00,Acu-Link.com,2013-04-03 23:46:00,
2013-04-03 20:02:00,44.2,18.3,30.15,North,0,4.2,-999.0,35,-99.99,,,0.00,Acu-Link.com,2013-04-04 00:02:00,
2013-04-03 20:17:00,43.9,19.3,30.15,East,90,2.7,-999.0,37,-99.99,,,0.00,Acu-Link.com,2013-04-04 00:17:00,
2013-04-03 20:32:00,43.3,19.4,30.15,North,0,4.2,-999.0,38,-99.99,,,0.00,Acu-Link.com,2013-04-04 00:32:00,
2013-04-03 20:47:00,43.0,19.8,30.15,ESE,112,5.3,-999.0,39,-99.99,,,0.00,Acu-Link.com,2013-04-04 00:47:00,
2013-04-03 21:02:00,42.6,19.4,30.16,SE,135,4.7,-999.0,39,-99.99,,,0.00,Acu-Link.com,2013-04-04 01:02:00,
2013-04-03 21:18:00,42.3,19.1,30.16,East,90,3.2,-999.0,39,-99.99,,,0.00,Acu-Link.com,2013-04-04 01:18:00,
2013-04-03 21:33:00,41.9,19.4,30.16,East,90,4.2,-999.0,40,-99.99,,,0.00,Acu-Link.com,2013-04-04 01:33:00,
2013-04-03 21:48:00,41.5,19.0,30.16,North,0,2.7,-999.0,40,-99.99,,,0.00,Acu-Link.com,2013-04-04 01:48:00,
2013-04-03 22:03:00,41.4,18.3,30.17,SSE,157,3.2,-999.0,39,-99.99,,,0.00,Acu-Link.com,2013-04-04 02:03:00,
2013-04-03 22:19:00,41.0,18.6,30.18,East,90,3.7,-999.0,40,-99.99,,,0.00,Acu-Link.com,2013-04-04 02:19:00,
2013-04-03 22:34:00,40.6,18.2,30.18,ESE,112,4.7,-999.0,40,-99.99,,,0.00,Acu-Link.com,2013-04-04 02:34:00,
2013-04-03 22:49:00,40.1,18.3,30.19,SSE,157,3.7,-999.0,41,-99.99,,,0.00,Acu-Link.com,2013-04-04 02:49:00,
2013-04-03 23:04:00,39.6,19.0,30.19,North,0,3.2,-999.0,43,-99.99,,,0.00,Acu-Link.com,2013-04-04 03:04:00,
2013-04-03 23:19:00,39.6,19.0,30.18,East,90,5.3,-999.0,43,-99.99,,,0.00,Acu-Link.com,2013-04-04 03:19:00,
2013-04-03 23:35:00,39.4,18.8,30.17,NE,45,3.7,-999.0,43,-99.99,,,0.00,Acu-Link.com,2013-04-04 03:35:00,
2013-04-03 23:50:00,39.2,19.1,30.17,NNE,22,4.2,-999.0,44,-99.99,,,0.00,Acu-Link.com,2013-04-04 03:50:00,